createdAt,value
2023-03-17T00:01:51.320Z,2.24
2023-03-17T00:04:19.503Z,2.13
2023-03-17T00:06:47.578Z,2.07
2023-03-17T00:09:17.305Z,2.07
2023-03-17T00:11:45.707Z,2.02
2023-03-17T00:14:12.947Z,1.99
2023-03-17T00:16:43.813Z,1.98
2023-03-17T00:19:28.364Z,2.00
2023-03-17T00:21:56.096Z,1.95
2023-03-17T00:24:23.295Z,1.94
2023-03-17T00:26:50.377Z,1.95
2023-03-17T00:29:17.507Z,2.01
2023-03-17T00:31:45.684Z,1.93
2023-03-17T00:34:17.154Z,1.89
2023-03-17T00:36:48.165Z,1.85
2023-03-17T00:41:43.654Z,1.87
2023-03-17T00:44:11.837Z,1.88
2023-03-17T00:46:39.413Z,1.89
2023-03-17T00:49:21.261Z,1.89
2023-03-17T00:51:49.709Z,1.95
2023-03-17T00:54:19.408Z,1.95
2023-03-17T00:56:49.028Z,1.96
2023-03-17T00:59:30.052Z,1.94
2023-03-17T01:01:58.093Z,1.97
2023-03-17T01:04:25.645Z,1.96
2023-03-17T01:06:53.189Z,1.89
2023-03-17T01:09:25.787Z,1.88
2023-03-17T01:11:54.917Z,1.83
2023-03-17T01:14:22.632Z,1.80
2023-03-17T01:16:49.737Z,1.72
2023-03-17T01:19:16.879Z,1.66
2023-03-17T01:21:44.354Z,1.70
2023-03-17T01:24:12.774Z,1.71
2023-03-17T01:26:40.438Z,1.73
2023-03-17T01:29:07.933Z,1.77
2023-03-17T01:31:35.257Z,1.70
2023-03-17T01:34:02.864Z,1.66
2023-03-17T01:36:29.958Z,1.63
2023-03-17T01:38:57.228Z,1.58
2023-03-17T01:41:25.003Z,1.57
2023-03-17T01:43:52.138Z,1.56
2023-03-17T01:46:30.501Z,1.49
2023-03-17T01:49:19.360Z,1.45
2023-03-17T01:52:06.445Z,1.40
2023-03-17T01:55:17.523Z,1.33
2023-03-17T01:57:50.689Z,1.27
2023-03-17T02:00:20.616Z,1.17
2023-03-17T02:02:51.385Z,1.11
2023-03-17T02:05:28.448Z,1.08
2023-03-17T02:07:56.232Z,1.00
2023-03-17T02:10:29.715Z,0.95
2023-03-17T02:12:59.725Z,0.94
2023-03-17T02:15:37.203Z,0.86
2023-03-17T02:18:04.653Z,0.72
2023-03-17T02:20:32.696Z,0.79
2023-03-17T02:23:01.287Z,0.81
2023-03-17T02:25:30.785Z,0.77
2023-03-17T02:28:03.784Z,0.78
2023-03-17T02:30:33.085Z,0.76
2023-03-17T02:33:00.269Z,0.79
2023-03-17T02:35:27.408Z,0.79
2023-03-17T02:37:54.496Z,0.82
2023-03-17T02:40:21.980Z,0.81
2023-03-17T02:42:49.254Z,0.76
2023-03-17T02:45:16.324Z,0.73
2023-03-17T02:47:46.017Z,0.73
2023-03-17T02:50:26.153Z,0.71
2023-03-17T02:53:08.131Z,0.69
2023-03-17T02:55:35.251Z,0.64
2023-03-17T02:58:03.430Z,0.62
2023-03-17T03:00:30.932Z,0.67
2023-03-17T03:02:58.231Z,0.67
2023-03-17T03:05:25.349Z,0.69
2023-03-17T03:07:52.735Z,0.72
2023-03-17T03:10:19.955Z,0.69
2023-03-17T03:12:47.202Z,0.63
2023-03-17T03:15:14.557Z,0.56
2023-03-17T03:17:42.060Z,0.41
2023-03-17T03:20:11.328Z,0.30
2023-03-17T03:22:39.055Z,0.27
2023-03-17T03:25:07.515Z,0.19
2023-03-17T03:27:34.743Z,0.15
2023-03-17T03:30:02.182Z,0.23
2023-03-17T03:32:29.381Z,0.21
2023-03-17T03:34:56.876Z,0.22
2023-03-17T03:37:23.989Z,0.18
2023-03-17T03:39:51.427Z,0.21
2023-03-17T03:42:18.546Z,0.20
2023-03-17T03:44:45.682Z,0.18
2023-03-17T03:47:12.779Z,0.10
2023-03-17T03:49:39.911Z,0.15
2023-03-17T03:52:07.192Z,0.14
2023-03-17T03:54:34.411Z,0.07
2023-03-17T03:57:01.504Z,0.07
2023-03-17T03:59:29.319Z,-0.05
2023-03-17T04:01:56.675Z,-0.10
2023-03-17T04:04:23.926Z,-0.16
2023-03-17T04:06:51.066Z,-0.34
2023-03-17T04:09:18.152Z,-0.22
2023-03-17T04:11:45.895Z,-0.22
2023-03-17T04:14:13.267Z,-0.28
2023-03-17T04:16:43.288Z,-0.28
2023-03-17T04:19:11.256Z,-0.31
2023-03-17T04:21:38.417Z,-0.34
2023-03-17T04:24:05.893Z,-0.35
2023-03-17T04:26:32.961Z,-0.41
2023-03-17T04:29:00.312Z,-0.50
2023-03-17T04:31:27.601Z,-0.46
2023-03-17T04:33:54.771Z,-0.46
2023-03-17T04:36:23.870Z,-0.49
2023-03-17T04:38:51.097Z,-0.52
2023-03-17T04:41:18.393Z,-0.45
2023-03-17T04:43:46.142Z,-0.38
2023-03-17T04:46:13.700Z,-0.23
2023-03-17T04:48:41.353Z,-0.11
2023-03-17T04:51:11.012Z,0.01
2023-03-17T04:53:38.841Z,0.10
2023-03-17T04:56:06.385Z,0.19
2023-03-17T04:58:33.517Z,0.18
2023-03-17T05:01:02.430Z,0.19
2023-03-17T05:03:30.997Z,0.26
2023-03-17T05:05:58.205Z,0.26
2023-03-17T05:08:26.639Z,0.19
2023-03-17T05:10:57.568Z,0.14
2023-03-17T05:13:25.741Z,0.22
2023-03-17T05:15:54.624Z,0.24
2023-03-17T05:18:24.393Z,0.25
2023-03-17T05:20:51.794Z,0.31
2023-03-17T05:23:19.204Z,0.31
2023-03-17T05:25:46.804Z,0.28
2023-03-17T05:28:14.156Z,0.25
2023-03-17T05:30:42.991Z,0.23
2023-03-17T05:33:10.155Z,0.34
2023-03-17T05:35:37.538Z,0.32
2023-03-17T05:38:04.685Z,0.32
2023-03-17T05:40:32.639Z,0.31
2023-03-17T05:42:59.951Z,0.33
2023-03-17T05:45:27.168Z,0.47
2023-03-17T05:47:54.238Z,0.62
2023-03-17T05:50:21.523Z,0.71
2023-03-17T05:52:48.739Z,0.85
2023-03-17T05:55:16.076Z,1.00
2023-03-17T05:57:43.577Z,1.14
2023-03-17T06:00:12.789Z,1.29
2023-03-17T06:02:40.092Z,1.43
2023-03-17T06:05:08.830Z,1.55
2023-03-17T06:07:50.833Z,1.75
2023-03-17T06:10:19.112Z,1.90
2023-03-17T06:12:46.364Z,2.06
2023-03-17T06:15:13.429Z,2.11
2023-03-17T06:17:40.486Z,2.27
2023-03-17T06:20:08.575Z,2.37
2023-03-17T06:22:37.295Z,2.53
2023-03-17T06:25:04.977Z,2.58
2023-03-17T06:27:32.348Z,2.77
2023-03-17T06:30:00.306Z,2.84
2023-03-17T06:32:27.727Z,2.92
2023-03-17T06:34:54.923Z,3.04
2023-03-17T06:37:22.361Z,3.04
2023-03-17T06:39:49.600Z,3.17
2023-03-17T06:42:16.680Z,3.24
2023-03-17T06:44:43.793Z,3.46
2023-03-17T06:47:11.012Z,3.43
2023-03-17T06:49:38.214Z,3.64
2023-03-17T06:52:05.503Z,3.76
2023-03-17T06:54:32.761Z,3.87
2023-03-17T06:56:59.876Z,4.21
2023-03-17T06:59:27.472Z,4.38
2023-03-17T07:01:54.723Z,4.53
2023-03-17T07:04:21.832Z,4.48
2023-03-17T07:06:49.072Z,4.55
2023-03-17T07:09:17.069Z,4.78
2023-03-17T07:11:44.198Z,4.84
2023-03-17T07:14:11.316Z,4.88
2023-03-17T07:16:38.425Z,5.01
2023-03-17T07:19:05.571Z,5.08
2023-03-17T07:21:32.869Z,5.18
2023-03-17T07:23:59.961Z,5.16
2023-03-17T07:26:27.274Z,5.37
2023-03-17T07:28:54.360Z,5.53
2023-03-17T07:31:21.555Z,5.50
2023-03-17T07:33:48.718Z,5.69
2023-03-17T07:36:16.026Z,5.70
2023-03-17T07:38:43.720Z,5.92
2023-03-17T07:41:10.925Z,6.08
2023-03-17T07:43:38.416Z,6.22
2023-03-17T07:46:06.562Z,6.26
2023-03-17T07:48:34.436Z,6.44
2023-03-17T07:51:01.533Z,6.56
2023-03-17T07:53:29.725Z,6.60
2023-03-17T07:55:56.811Z,6.76
2023-03-17T07:58:23.877Z,6.76
2023-03-17T08:00:51.722Z,6.94
2023-03-17T08:03:19.698Z,7.15
2023-03-17T08:05:53.279Z,7.07
2023-03-17T08:08:22.157Z,7.18
2023-03-17T08:10:50.426Z,7.34
2023-03-17T08:13:18.742Z,7.45
2023-03-17T08:15:46.380Z,7.56
2023-03-17T08:18:13.619Z,7.80
2023-03-17T08:20:40.739Z,7.66
2023-03-17T08:23:07.859Z,7.74
2023-03-17T08:25:35.002Z,7.86
2023-03-17T08:28:03.478Z,8.02
2023-03-17T08:30:33.626Z,8.22
2023-03-17T08:33:01.707Z,8.43
2023-03-17T08:35:29.223Z,8.60
2023-03-17T08:37:56.983Z,8.80
2023-03-17T08:40:24.323Z,9.05
2023-03-17T08:42:51.740Z,9.18
2023-03-17T08:45:18.859Z,9.56
2023-03-17T08:47:47.689Z,9.50
2023-03-17T08:50:18.327Z,9.60
2023-03-17T08:52:46.869Z,9.84
2023-03-17T08:55:15.282Z,10.01
2023-03-17T08:57:44.683Z,10.04
2023-03-17T09:00:14.443Z,10.05
2023-03-17T09:02:46.015Z,10.25
2023-03-17T09:05:15.408Z,10.36
2023-03-17T09:07:43.537Z,10.46
2023-03-17T09:10:13.607Z,10.65
2023-03-17T09:12:40.793Z,10.82
2023-03-17T09:15:08.808Z,10.89
2023-03-17T09:17:35.973Z,11.00
2023-03-17T09:20:03.725Z,11.13
2023-03-17T09:22:31.245Z,11.27
2023-03-17T09:24:58.632Z,11.39
2023-03-17T09:27:25.789Z,11.46
2023-03-17T09:29:52.893Z,11.42
2023-03-17T09:32:20.102Z,11.63
2023-03-17T09:34:48.609Z,11.54
2023-03-17T09:37:16.777Z,11.60
2023-03-17T09:39:43.886Z,11.54
2023-03-17T09:42:28.986Z,11.85
2023-03-17T09:45:06.418Z,12.00
2023-03-17T09:48:15.700Z,12.15
2023-03-17T09:51:04.790Z,12.28
2023-03-17T09:53:35.817Z,12.10
2023-03-17T09:56:08.543Z,12.24
2023-03-17T09:58:37.379Z,12.58
2023-03-17T10:01:07.723Z,12.60
2023-03-17T10:03:34.878Z,12.63
2023-03-17T10:06:43.570Z,12.91
2023-03-17T10:09:26.213Z,12.93
2023-03-17T10:12:04.799Z,13.11
2023-03-17T10:14:41.529Z,13.29
2023-03-17T10:17:18.323Z,13.31
2023-03-17T10:20:08.321Z,13.44
2023-03-17T10:23:05.074Z,13.58
2023-03-17T10:25:35.434Z,13.54
2023-03-17T10:28:11.428Z,13.79
2023-03-17T10:30:39.706Z,13.83
2023-03-17T10:33:07.183Z,13.83
2023-03-17T10:35:37.438Z,13.80
2023-03-17T10:38:24.484Z,13.95
2023-03-17T10:41:07.073Z,14.11
2023-03-17T10:43:46.126Z,14.21
2023-03-17T10:46:25.678Z,13.99
2023-03-17T10:49:18.055Z,14.30
2023-03-17T10:51:46.805Z,14.53
2023-03-17T10:54:18.825Z,14.48
2023-03-17T10:57:01.228Z,14.57
2023-03-17T10:59:37.525Z,14.71
2023-03-17T11:02:30.540Z,14.70
2023-03-17T11:05:09.519Z,14.75
2023-03-17T11:07:39.894Z,14.69
2023-03-17T11:10:27.271Z,14.93
2023-03-17T11:13:01.947Z,14.99
2023-03-17T11:15:37.845Z,14.74
2023-03-17T11:18:16.853Z,14.79
2023-03-17T11:20:59.929Z,14.90
2023-03-17T11:23:42.092Z,14.95
2023-03-17T11:26:39.964Z,15.07
2023-03-17T11:29:21.039Z,15.27
2023-03-17T11:32:03.326Z,15.17
2023-03-17T11:34:41.666Z,15.03
2023-03-17T11:37:33.451Z,15.07
2023-03-17T11:40:19.354Z,15.51
2023-03-17T11:43:20.167Z,15.19
2023-03-17T11:45:55.943Z,15.42
2023-03-17T11:48:27.597Z,15.52
2023-03-17T11:51:08.590Z,15.49
2023-03-17T11:54:02.838Z,15.73
2023-03-17T11:56:35.206Z,15.86
2023-03-17T11:59:06.997Z,15.74
2023-03-17T12:01:48.622Z,15.95
2023-03-17T12:04:20.350Z,15.91
2023-03-17T12:06:57.704Z,15.86
2023-03-17T12:09:36.716Z,15.91
2023-03-17T12:12:05.397Z,16.04
2023-03-17T12:14:35.122Z,16.51
2023-03-17T12:17:25.850Z,16.39
2023-03-17T12:20:07.090Z,16.13
2023-03-17T12:22:40.850Z,16.44
2023-03-17T12:25:10.742Z,16.39
2023-03-17T12:28:03.833Z,16.17
2023-03-17T12:30:59.691Z,16.77
2023-03-17T12:34:06.595Z,17.13
2023-03-17T12:36:38.385Z,16.60
2023-03-17T12:39:10.188Z,16.56
2023-03-17T12:42:01.643Z,16.75
2023-03-17T12:44:41.395Z,16.59
2023-03-17T12:47:36.626Z,16.86
2023-03-17T12:50:36.770Z,16.68
2023-03-17T12:53:28.363Z,16.86
2023-03-17T12:56:00.289Z,16.91
2023-03-17T12:58:36.338Z,16.80
2023-03-17T13:01:09.014Z,16.71
2023-03-17T13:03:42.635Z,16.75
2023-03-17T13:06:19.487Z,16.86
2023-03-17T13:08:51.522Z,16.99
2023-03-17T13:11:45.436Z,16.87
2023-03-17T13:14:44.468Z,17.12
2023-03-17T13:17:11.488Z,17.21
2023-03-17T13:19:56.653Z,17.37
2023-03-17T13:22:33.893Z,17.50
2023-03-17T13:25:13.387Z,17.16
2023-03-17T13:27:42.725Z,17.40
2023-03-17T13:30:27.626Z,17.30
2023-03-17T13:33:10.003Z,17.03
2023-03-17T13:35:50.836Z,17.39
2023-03-17T13:38:20.713Z,17.58
2023-03-17T13:41:01.412Z,17.58
2023-03-17T13:43:28.421Z,17.29
2023-03-17T13:46:19.572Z,17.62
2023-03-17T13:48:47.842Z,17.63
2023-03-17T13:51:24.434Z,17.63
2023-03-17T13:53:55.389Z,17.31
2023-03-17T13:56:36.117Z,17.43
2023-03-17T13:59:03.797Z,17.74
2023-03-17T14:01:59.812Z,17.75
2023-03-17T14:04:30.957Z,17.51
2023-03-17T14:07:04.857Z,17.69
2023-03-17T14:09:38.910Z,17.22
2023-03-17T14:12:24.785Z,17.25
2023-03-17T14:15:08.269Z,17.40
2023-03-17T14:17:41.517Z,17.13
2023-03-17T14:20:18.494Z,17.20
2023-03-17T14:22:48.138Z,17.16
2023-03-17T14:25:24.670Z,17.27
2023-03-17T14:27:55.015Z,17.57
2023-03-17T14:30:24.790Z,17.80
2023-03-17T14:33:12.216Z,17.83
2023-03-17T14:35:43.242Z,17.84
2023-03-17T14:38:24.127Z,18.17
2023-03-17T14:41:18.473Z,18.85
2023-03-17T14:43:46.737Z,19.11
2023-03-17T14:46:17.545Z,19.83
2023-03-17T14:48:48.605Z,20.47
2023-03-17T14:51:25.381Z,19.81
2023-03-17T14:53:54.357Z,20.67
2023-03-17T14:56:29.641Z,20.50
2023-03-17T14:59:06.576Z,19.67
2023-03-17T15:01:42.966Z,19.16
2023-03-17T15:04:17.481Z,18.92
2023-03-17T15:06:50.007Z,18.99
2023-03-17T15:09:19.108Z,19.03
2023-03-17T15:11:47.785Z,19.14
2023-03-17T15:14:26.725Z,18.71
2023-03-17T15:16:55.524Z,18.67
2023-03-17T15:19:28.920Z,18.35
2023-03-17T15:21:59.747Z,18.42
2023-03-17T15:24:40.060Z,18.30
2023-03-17T15:27:16.439Z,17.74
2023-03-17T15:29:44.350Z,17.79
2023-03-17T15:32:20.442Z,18.02
2023-03-17T15:34:48.524Z,17.77
2023-03-17T15:37:30.493Z,17.77
2023-03-17T15:39:58.201Z,17.68
2023-03-17T15:42:31.036Z,17.08
2023-03-17T15:45:01.073Z,16.88
2023-03-17T15:47:31.088Z,16.28
2023-03-17T15:50:01.987Z,16.61
2023-03-17T15:52:29.362Z,16.64
2023-03-17T15:54:58.440Z,16.10
2023-03-17T15:57:27.064Z,15.84
2023-03-17T15:59:54.177Z,15.51
2023-03-17T16:02:38.388Z,15.65
2023-03-17T16:05:16.588Z,15.41
2023-03-17T16:07:44.622Z,15.09
2023-03-17T16:10:24.438Z,14.92
2023-03-17T16:12:51.607Z,14.76
2023-03-17T16:15:23.393Z,14.66
2023-03-17T16:17:54.017Z,14.55
2023-03-17T16:20:26.032Z,14.20
2023-03-17T16:22:55.323Z,14.08
2023-03-17T16:25:28.332Z,13.92
2023-03-17T16:28:01.726Z,13.57
2023-03-17T16:30:31.944Z,13.52
2023-03-17T16:33:15.060Z,13.31
2023-03-17T16:35:42.958Z,13.28
2023-03-17T16:38:17.477Z,13.17
2023-03-17T16:40:51.260Z,12.76
2023-03-17T16:43:29.893Z,12.83
2023-03-17T16:45:59.298Z,12.64
2023-03-17T16:48:27.021Z,12.44
2023-03-17T16:50:55.335Z,12.47
2023-03-17T16:53:22.849Z,12.33
2023-03-17T16:55:51.584Z,12.09
2023-03-17T16:58:28.645Z,11.85
2023-03-17T17:00:59.976Z,11.81
2023-03-17T17:03:27.810Z,11.80
2023-03-17T17:05:55.535Z,11.65
2023-03-17T17:08:22.665Z,11.37
2023-03-17T17:10:50.009Z,11.20
2023-03-17T17:13:17.052Z,11.15
2023-03-17T17:15:45.462Z,10.98
2023-03-17T17:18:21.742Z,10.75
2023-03-17T17:20:49.843Z,10.54
2023-03-17T17:23:20.439Z,10.43
2023-03-17T17:25:48.414Z,10.33
2023-03-17T17:28:17.590Z,10.22
2023-03-17T17:30:47.810Z,10.05
2023-03-17T17:33:19.164Z,9.92
2023-03-17T17:35:47.083Z,9.84
2023-03-17T17:38:23.475Z,9.75
2023-03-17T17:40:50.599Z,9.54
2023-03-17T17:43:18.217Z,9.49
2023-03-17T17:45:48.571Z,9.40
2023-03-17T17:48:22.410Z,9.35
2023-03-17T17:50:51.164Z,9.34
2023-03-17T17:53:18.812Z,9.28
2023-03-17T17:55:48.364Z,9.16
2023-03-17T17:58:18.079Z,9.06
2023-03-17T18:00:45.781Z,8.92
2023-03-17T18:03:12.949Z,8.80
2023-03-17T18:05:40.154Z,8.77
2023-03-17T18:08:07.665Z,8.75
2023-03-17T18:10:35.031Z,8.71
2023-03-17T18:13:02.156Z,8.63
2023-03-17T18:15:29.298Z,8.60
2023-03-17T18:17:56.515Z,8.53
2023-03-17T18:20:24.134Z,8.42
2023-03-17T18:22:51.547Z,8.26
2023-03-17T18:25:19.525Z,8.17
2023-03-17T18:27:47.731Z,8.12
2023-03-17T18:30:22.240Z,8.11
2023-03-17T18:32:52.995Z,8.05
2023-03-17T18:35:22.285Z,8.02
2023-03-17T18:37:50.780Z,7.97
2023-03-17T18:40:19.177Z,7.86
2023-03-17T18:42:46.725Z,7.82
2023-03-17T18:45:14.024Z,7.78
2023-03-17T18:47:41.933Z,7.70
2023-03-17T18:50:12.134Z,7.65
2023-03-17T18:52:41.646Z,7.59
2023-03-17T18:55:10.160Z,7.53
2023-03-17T18:57:37.367Z,7.44
2023-03-17T19:00:06.997Z,7.40
2023-03-17T19:02:35.630Z,7.40
2023-03-17T19:05:03.333Z,7.35
2023-03-17T19:07:30.588Z,7.31
2023-03-17T19:09:57.897Z,7.22
2023-03-17T19:12:25.396Z,7.15
2023-03-17T19:14:53.011Z,7.07
2023-03-17T19:17:20.270Z,7.08
2023-03-17T19:19:50.187Z,6.97
2023-03-17T19:22:17.813Z,6.90
2023-03-17T19:24:46.002Z,6.89
2023-03-17T19:27:13.112Z,6.83
2023-03-17T19:29:40.293Z,6.80
2023-03-17T19:32:08.121Z,6.76
2023-03-17T19:34:35.290Z,6.69
2023-03-17T19:37:03.659Z,6.63
2023-03-17T19:39:31.482Z,6.57
2023-03-17T19:41:59.211Z,6.56
2023-03-17T19:44:26.977Z,6.52
2023-03-17T19:46:54.390Z,6.55
2023-03-17T19:49:22.361Z,6.49
2023-03-17T19:51:49.964Z,6.46
2023-03-17T19:54:18.663Z,6.46
2023-03-17T19:56:45.846Z,6.36
2023-03-17T19:59:14.950Z,6.24
2023-03-17T20:01:42.624Z,6.16
2023-03-17T20:04:11.381Z,6.11
2023-03-17T20:06:38.589Z,6.08
2023-03-17T20:09:08.707Z,5.97
2023-03-17T20:11:36.027Z,5.97
2023-03-17T20:14:03.788Z,5.97
2023-03-17T20:16:33.514Z,5.95
2023-03-17T20:19:01.326Z,5.85
2023-03-17T20:21:28.641Z,5.83
2023-03-17T20:23:56.245Z,5.77
2023-03-17T20:26:24.514Z,5.79
2023-03-17T20:28:51.633Z,5.78
2023-03-17T20:31:19.266Z,5.73
2023-03-17T20:33:46.487Z,5.73
2023-03-17T20:36:14.033Z,5.70
2023-03-17T20:38:43.597Z,5.70
2023-03-17T20:41:13.737Z,5.68
2023-03-17T20:43:41.646Z,5.69
2023-03-17T20:46:14.967Z,5.68
2023-03-17T20:48:43.193Z,5.63
2023-03-17T20:51:16.475Z,5.57
2023-03-17T20:53:47.955Z,5.56
2023-03-17T20:56:19.644Z,5.51
2023-03-17T20:58:48.400Z,5.45
2023-03-17T21:01:20.775Z,5.39
2023-03-17T21:03:49.021Z,5.39
2023-03-17T21:06:16.666Z,5.42
2023-03-17T21:08:43.936Z,5.33
2023-03-17T21:11:15.025Z,5.29
2023-03-17T21:13:44.046Z,5.29
2023-03-17T21:16:23.746Z,5.26
2023-03-17T21:18:52.071Z,5.29
2023-03-17T21:21:19.819Z,5.22
2023-03-17T21:23:47.461Z,5.19
2023-03-17T21:26:15.069Z,5.14
2023-03-17T21:28:42.718Z,5.10
2023-03-17T21:31:12.172Z,5.11
2023-03-17T21:33:39.550Z,5.10
2023-03-17T21:36:07.306Z,5.07
2023-03-17T21:38:35.669Z,5.12
2023-03-17T21:41:33.259Z,5.02
2023-03-17T21:44:02.155Z,5.04
2023-03-17T21:46:31.592Z,5.02
2023-03-17T21:48:58.804Z,5.01
2023-03-17T21:51:26.271Z,4.92
2023-03-17T21:53:53.857Z,4.72
2023-03-17T21:56:21.459Z,4.62
2023-03-17T21:58:48.976Z,4.56
2023-03-17T22:01:17.786Z,4.56
2023-03-17T22:03:45.065Z,4.50
2023-03-17T22:06:13.455Z,4.42
2023-03-17T22:08:41.097Z,4.38
2023-03-17T22:11:10.157Z,4.36
2023-03-17T22:13:37.662Z,4.29
2023-03-17T22:16:05.362Z,4.29
2023-03-17T22:18:32.564Z,4.27
2023-03-17T22:21:00.402Z,4.29
2023-03-17T22:23:28.912Z,4.20
2023-03-17T22:25:57.198Z,4.11
2023-03-17T22:28:24.817Z,4.03
2023-03-17T22:30:51.944Z,4.01
2023-03-17T22:33:19.141Z,4.04
2023-03-17T22:35:46.939Z,3.98
2023-03-17T22:38:14.358Z,3.97
2023-03-17T22:40:41.473Z,3.83
2023-03-17T22:43:08.660Z,3.80
2023-03-17T22:45:35.904Z,3.79
2023-03-17T22:48:03.311Z,3.74
2023-03-17T22:50:30.666Z,3.66
2023-03-17T22:52:57.907Z,3.61
2023-03-17T22:55:25.089Z,3.64
2023-03-17T22:57:52.168Z,3.63
2023-03-17T23:00:19.582Z,3.55
2023-03-17T23:02:47.223Z,3.59
2023-03-17T23:05:14.612Z,3.56
2023-03-17T23:07:50.375Z,3.56
2023-03-17T23:10:24.449Z,3.45
2023-03-17T23:12:52.015Z,3.40
2023-03-17T23:15:20.086Z,3.41
2023-03-17T23:17:47.589Z,3.37
2023-03-17T23:20:15.517Z,3.24
2023-03-17T23:22:42.939Z,3.24
2023-03-17T23:25:10.672Z,3.21
2023-03-17T23:27:37.760Z,3.22
2023-03-17T23:30:05.965Z,3.18
2023-03-17T23:32:34.148Z,3.12
2023-03-17T23:35:02.508Z,3.07
2023-03-17T23:37:29.659Z,3.01
2023-03-17T23:39:56.908Z,2.96
2023-03-17T23:42:24.079Z,2.81
2023-03-17T23:44:51.627Z,2.66
2023-03-17T23:47:18.985Z,2.52
2023-03-17T23:49:47.296Z,2.40
2023-03-17T23:52:15.404Z,2.30
2023-03-17T23:54:42.528Z,2.21
2023-03-17T23:57:09.623Z,2.31
2023-03-17T23:59:37.022Z,2.27
